Ackerman, Mississippi
Current Conditions -  °F | °C
As of 8:15 AM on Monday 24 Nov 2014 (Local Time) from KSTF Reporting Station
Broken Clouds Broken Clouds  
Wind Chill: 12°   Ceiling: 2700
Heat Index: 12°   Visibility: NA
Dew Point:   Wind: 8mph
Humidity: 77%   Direction: 270°W
Pressure: 29.83"   Gusts: NA
Location:  33.31°N, 89.17°W
Report Text: KSTF 241415Z AUTO 27007KT BKN027 12/08 A2983 RMK AO2 PWINO
Loading
Personal Weather Stations






























Interactive Weather Map New forecast layout! Learn more

10-Day Weather Forecast

Advertisements
Track Severe Weather on mobile